sensor_id;sensor_type;location;lat;lon;timestamp;pressure;altitude;pressure_sealevel;temperature;humidity
10948;BME280;5526;42.070;24.752;2023-04-15T00:00:37;98194.06;;;11.97;100.00
10948;BME280;5526;42.070;24.752;2023-04-15T00:03:04;98202.47;;;11.99;100.00
10948;BME280;5526;42.070;24.752;2023-04-15T00:05:31;98216.47;;;11.99;100.00
10948;BME280;5526;42.070;24.752;2023-04-15T00:07:59;98211.97;;;11.76;100.00
10948;BME280;5526;42.070;24.752;2023-04-15T00:10:27;98218.44;;;11.89;100.00
10948;BME280;5526;42.070;24.752;2023-04-15T00:12:54;98222.56;;;11.95;100.00
10948;BME280;5526;42.070;24.752;2023-04-15T00:15:22;98219.09;;;11.99;100.00
10948;BME280;5526;42.070;24.752;2023-04-15T00:17:50;98229.84;;;12.03;100.00
10948;BME280;5526;42.070;24.752;2023-04-15T00:20:17;98210.47;;;12.17;100.00
10948;BME280;5526;42.070;24.752;2023-04-15T00:22:44;98196.47;;;12.17;100.00
10948;BME280;5526;42.070;24.752;2023-04-15T00:25:12;98201.63;;;12.27;100.00
10948;BME280;5526;42.070;24.752;2023-04-15T00:27:40;98218.47;;;12.31;100.00
10948;BME280;5526;42.070;24.752;2023-04-15T00:30:07;98206.50;;;12.15;100.00
10948;BME280;5526;42.070;24.752;2023-04-15T00:32:36;98200.81;;;12.08;100.00
10948;BME280;5526;42.070;24.752;2023-04-15T00:35:04;98203.22;;;12.04;100.00
10948;BME280;5526;42.070;24.752;2023-04-15T00:37:31;98211.28;;;12.13;100.00
10948;BME280;5526;42.070;24.752;2023-04-15T00:39:59;98220.44;;;11.97;100.00
10948;BME280;5526;42.070;24.752;2023-04-15T00:42:29;98207.75;;;11.75;100.00
10948;BME280;5526;42.070;24.752;2023-04-15T00:44:57;98226.06;;;11.90;100.00
10948;BME280;5526;42.070;24.752;2023-04-15T00:47:24;98215.91;;;12.02;100.00
10948;BME280;5526;42.070;24.752;2023-04-15T00:49:54;98209.56;;;12.03;100.00
10948;BME280;5526;42.070;24.752;2023-04-15T00:52:21;98208.72;;;12.08;100.00
10948;BME280;5526;42.070;24.752;2023-04-15T00:54:48;98205.22;;;12.12;100.00
10948;BME280;5526;42.070;24.752;2023-04-15T00:57:17;98196.41;;;12.22;100.00
10948;BME280;5526;42.070;24.752;2023-04-15T00:59:44;98205.31;;;12.26;100.00
10948;BME280;5526;42.070;24.752;2023-04-15T01:02:12;98195.34;;;12.23;100.00
10948;BME280;5526;42.070;24.752;2023-04-15T01:04:39;98193.66;;;12.08;100.00
10948;BME280;5526;42.070;24.752;2023-04-15T01:07:08;98196.06;;;11.86;100.00
10948;BME280;5526;42.070;24.752;2023-04-15T01:09:35;98193.50;;;11.76;100.00
10948;BME280;5526;42.070;24.752;2023-04-15T01:12:03;98177.56;;;11.63;100.00
10948;BME280;5526;42.070;24.752;2023-04-15T01:14:32;98202.25;;;11.72;100.00
10948;BME280;5526;42.070;24.752;2023-04-15T01:17:00;98197.28;;;11.70;100.00
10948;BME280;5526;42.070;24.752;2023-04-15T01:19:27;98185.31;;;11.78;100.00
10948;BME280;5526;42.070;24.752;2023-04-15T01:21:55;98183.84;;;11.67;100.00
10948;BME280;5526;42.070;24.752;2023-04-15T01:24:25;98199.41;;;11.68;100.00
10948;BME280;5526;42.070;24.752;2023-04-15T01:26:55;98195.88;;;11.78;100.00
10948;BME280;5526;42.070;24.752;2023-04-15T01:29:22;98189.16;;;11.90;100.00
10948;BME280;5526;42.070;24.752;2023-04-15T01:31:50;98180.97;;;11.92;100.00
10948;BME280;5526;42.070;24.752;2023-04-15T01:34:18;98197.00;;;11.95;100.00
10948;BME280;5526;42.070;24.752;2023-04-15T01:36:45;98206.25;;;11.93;100.00
10948;BME280;5526;42.070;24.752;2023-04-15T01:39:13;98202.38;;;11.85;100.00
10948;BME280;5526;42.070;24.752;2023-04-15T01:41:40;98214.25;;;11.83;100.00
10948;BME280;5526;42.070;24.752;2023-04-15T01:44:09;98217.97;;;11.82;100.00
10948;BME280;5526;42.070;24.752;2023-04-15T01:46:36;98223.78;;;11.79;100.00
10948;BME280;5526;42.070;24.752;2023-04-15T01:49:04;98229.25;;;11.59;100.00
10948;BME280;5526;42.070;24.752;2023-04-15T01:51:31;98227.59;;;11.39;100.00
10948;BME280;5526;42.070;24.752;2023-04-15T01:53:58;98226.47;;;11.45;100.00
10948;BME280;5526;42.070;24.752;2023-04-15T01:56:26;98234.31;;;11.50;100.00
10948;BME280;5526;42.070;24.752;2023-04-15T01:58:53;98243.38;;;11.39;100.00
10948;BME280;5526;42.070;24.752;2023-04-15T02:01:21;98243.88;;;11.41;100.00
10948;BME280;5526;42.070;24.752;2023-04-15T02:03:49;98242.03;;;11.42;100.00
10948;BME280;5526;42.070;24.752;2023-04-15T02:06:16;98244.25;;;11.30;100.00
10948;BME280;5526;42.070;24.752;2023-04-15T02:08:44;98241.25;;;11.08;100.00
10948;BME280;5526;42.070;24.752;2023-04-15T02:11:11;98247.28;;;11.13;100.00
10948;BME280;5526;42.070;24.752;2023-04-15T02:13:38;98244.69;;;11.08;100.00
10948;BME280;5526;42.070;24.752;2023-04-15T02:16:14;98241.53;;;11.06;100.00
10948;BME280;5526;42.070;24.752;2023-04-15T02:18:43;98238.72;;;10.98;100.00
10948;BME280;5526;42.070;24.752;2023-04-15T02:21:11;98247.00;;;11.15;100.00
10948;BME280;5526;42.070;24.752;2023-04-15T02:23:38;98250.13;;;11.22;100.00
10948;BME280;5526;42.070;24.752;2023-04-15T02:26:06;98253.03;;;11.20;100.00
10948;BME280;5526;42.070;24.752;2023-04-15T02:28:33;98254.31;;;11.23;100.00
10948;BME280;5526;42.070;24.752;2023-04-15T02:31:04;98243.47;;;11.29;100.00
10948;BME280;5526;42.070;24.752;2023-04-15T02:33:31;98233.75;;;11.25;100.00
10948;BME280;5526;42.070;24.752;2023-04-15T02:36:00;98231.47;;;11.13;100.00
10948;BME280;5526;42.070;24.752;2023-04-15T02:38:27;98233.50;;;10.88;100.00
10948;BME280;5526;42.070;24.752;2023-04-15T02:40:56;98238.34;;;10.71;100.00
10948;BME280;5526;42.070;24.752;2023-04-15T02:43:23;98251.25;;;10.72;100.00
10948;BME280;5526;42.070;24.752;2023-04-15T02:45:51;98254.56;;;10.88;100.00
10948;BME280;5526;42.070;24.752;2023-04-15T02:48:18;98248.66;;;11.06;100.00
10948;BME280;5526;42.070;24.752;2023-04-15T02:50:45;98242.63;;;11.00;100.00
10948;BME280;5526;42.070;24.752;2023-04-15T02:53:14;98237.09;;;11.02;100.00
10948;BME280;5526;42.070;24.752;2023-04-15T02:55:42;98244.00;;;10.93;100.00
10948;BME280;5526;42.070;24.752;2023-04-15T02:58:09;98247.47;;;10.88;100.00
10948;BME280;5526;42.070;24.752;2023-04-15T03:00:36;98237.34;;;11.05;100.00
10948;BME280;5526;42.070;24.752;2023-04-15T03:03:04;98228.09;;;11.08;100.00
10948;BME280;5526;42.070;24.752;2023-04-15T03:05:32;98247.00;;;11.15;100.00
10948;BME280;5526;42.070;24.752;2023-04-15T03:07:59;98244.28;;;11.25;100.00
10948;BME280;5526;42.070;24.752;2023-04-15T03:10:29;98244.75;;;11.32;100.00
10948;BME280;5526;42.070;24.752;2023-04-15T03:12:56;98259.22;;;11.34;100.00
10948;BME280;5526;42.070;24.752;2023-04-15T03:15:23;98266.78;;;11.46;100.00
10948;BME280;5526;42.070;24.752;2023-04-15T03:17:50;98266.84;;;11.41;100.00
10948;BME280;5526;42.070;24.752;2023-04-15T03:20:18;98277.22;;;11.27;100.00
10948;BME280;5526;42.070;24.752;2023-04-15T03:22:45;98271.50;;;11.15;100.00
10948;BME280;5526;42.070;24.752;2023-04-15T03:25:12;98277.13;;;10.99;100.00
10948;BME280;5526;42.070;24.752;2023-04-15T03:27:41;98275.03;;;10.96;100.00
10948;BME280;5526;42.070;24.752;2023-04-15T03:30:09;98285.63;;;10.86;100.00
10948;BME280;5526;42.070;24.752;2023-04-15T03:32:37;98291.13;;;10.89;100.00
10948;BME280;5526;42.070;24.752;2023-04-15T03:35:04;98294.50;;;11.00;100.00
10948;BME280;5526;42.070;24.752;2023-04-15T03:37:32;98298.16;;;11.04;100.00
10948;BME280;5526;42.070;24.752;2023-04-15T03:39:59;98301.63;;;10.94;100.00
10948;BME280;5526;42.070;24.752;2023-04-15T03:42:26;98299.75;;;11.00;100.00
10948;BME280;5526;42.070;24.752;2023-04-15T03:44:55;98311.84;;;11.01;100.00
10948;BME280;5526;42.070;24.752;2023-04-15T03:47:22;98308.16;;;11.07;100.00
10948;BME280;5526;42.070;24.752;2023-04-15T03:49:49;98317.56;;;11.13;100.00
10948;BME280;5526;42.070;24.752;2023-04-15T03:52:17;98313.41;;;11.07;100.00
10948;BME280;5526;42.070;24.752;2023-04-15T03:54:44;98324.97;;;11.11;100.00
10948;BME280;5526;42.070;24.752;2023-04-15T03:57:11;98327.00;;;11.24;100.00
10948;BME280;5526;42.070;24.752;2023-04-15T03:59:38;98329.31;;;11.35;100.00
10948;BME280;5526;42.070;24.752;2023-04-15T04:02:07;98328.19;;;11.41;100.00
10948;BME280;5526;42.070;24.752;2023-04-15T04:04:34;98328.59;;;11.20;100.00
10948;BME280;5526;42.070;24.752;2023-04-15T04:07:01;98338.25;;;10.91;100.00
10948;BME280;5526;42.070;24.752;2023-04-15T04:09:29;98327.25;;;10.74;100.00
10948;BME280;5526;42.070;24.752;2023-04-15T04:11:56;98334.94;;;10.60;100.00
10948;BME280;5526;42.070;24.752;2023-04-15T04:14:23;98335.28;;;10.44;100.00
10948;BME280;5526;42.070;24.752;2023-04-15T04:16:54;98348.44;;;10.44;100.00
10948;BME280;5526;42.070;24.752;2023-04-15T04:19:23;98345.59;;;10.25;100.00
10948;BME280;5526;42.070;24.752;2023-04-15T04:21:51;98343.47;;;10.27;100.00
10948;BME280;5526;42.070;24.752;2023-04-15T04:24:18;98331.34;;;10.41;100.00
10948;BME280;5526;42.070;24.752;2023-04-15T04:26:45;98341.91;;;10.26;100.00
10948;BME280;5526;42.070;24.752;2023-04-15T04:29:13;98347.72;;;10.03;100.00
10948;BME280;5526;42.070;24.752;2023-04-15T04:31:40;98342.47;;;9.68;100.00
10948;BME280;5526;42.070;24.752;2023-04-15T04:34:07;98343.81;;;9.81;100.00
10948;BME280;5526;42.070;24.752;2023-04-15T04:36:36;98352.69;;;10.00;100.00
10948;BME280;5526;42.070;24.752;2023-04-15T04:39:03;98349.03;;;10.21;100.00
10948;BME280;5526;42.070;24.752;2023-04-15T04:41:30;98361.84;;;10.47;100.00
10948;BME280;5526;42.070;24.752;2023-04-15T04:43:58;98364.03;;;10.89;100.00
10948;BME280;5526;42.070;24.752;2023-04-15T04:46:25;98372.38;;;11.11;100.00
10948;BME280;5526;42.070;24.752;2023-04-15T04:48:52;98364.66;;;11.24;100.00
10948;BME280;5526;42.070;24.752;2023-04-15T04:51:19;98364.59;;;10.81;100.00
10948;BME280;5526;42.070;24.752;2023-04-15T04:53:48;98368.34;;;10.75;100.00
10948;BME280;5526;42.070;24.752;2023-04-15T04:56:15;98369.66;;;10.72;100.00
10948;BME280;5526;42.070;24.752;2023-04-15T04:58:43;98363.56;;;10.77;100.00
10948;BME280;5526;42.070;24.752;2023-04-15T05:01:10;98365.53;;;11.10;100.00
10948;BME280;5526;42.070;24.752;2023-04-15T05:03:37;98372.22;;;11.41;100.00
10948;BME280;5526;42.070;24.752;2023-04-15T05:06:05;98377.44;;;11.46;100.00
10948;BME280;5526;42.070;24.752;2023-04-15T05:08:33;98367.00;;;11.69;100.00
10948;BME280;5526;42.070;24.752;2023-04-15T05:11:02;98372.25;;;12.03;100.00
10948;BME280;5526;42.070;24.752;2023-04-15T05:13:29;98366.81;;;12.23;100.00
10948;BME280;5526;42.070;24.752;2023-04-15T05:15:56;98370.56;;;12.17;100.00
10948;BME280;5526;42.070;24.752;2023-04-15T05:18:24;98373.94;;;12.22;99.34
10948;BME280;5526;42.070;24.752;2023-04-15T05:20:51;98375.22;;;12.25;99.07
10948;BME280;5526;42.070;24.752;2023-04-15T05:23:18;98377.66;;;12.21;98.92
10948;BME280;5526;42.070;24.752;2023-04-15T05:25:46;98378.66;;;12.25;98.13
10948;BME280;5526;42.070;24.752;2023-04-15T05:28:14;98381.22;;;12.59;96.82
10948;BME280;5526;42.070;24.752;2023-04-15T05:30:42;98385.50;;;12.97;94.75
10948;BME280;5526;42.070;24.752;2023-04-15T05:33:09;98392.22;;;13.32;92.56
10948;BME280;5526;42.070;24.752;2023-04-15T05:35:36;98388.63;;;13.04;93.30
10948;BME280;5526;42.070;24.752;2023-04-15T05:38:04;98400.72;;;13.29;92.47
10948;BME280;5526;42.070;24.752;2023-04-15T05:40:31;98402.63;;;13.42;91.76
10948;BME280;5526;42.070;24.752;2023-04-15T05:42:58;98407.00;;;13.70;90.12
10948;BME280;5526;42.070;24.752;2023-04-15T05:45:27;98413.56;;;13.54;91.84
10948;BME280;5526;42.070;24.752;2023-04-15T05:47:54;98422.50;;;13.58;91.47
10948;BME280;5526;42.070;24.752;2023-04-15T05:50:21;98426.91;;;13.81;88.68
10948;BME280;5526;42.070;24.752;2023-04-15T05:52:49;98427.41;;;14.01;88.04
10948;BME280;5526;42.070;24.752;2023-04-15T05:55:16;98430.09;;;14.15;82.75
10948;BME280;5526;42.070;24.752;2023-04-15T05:57:43;98430.66;;;14.30;84.29
10948;BME280;5526;42.070;24.752;2023-04-15T06:00:12;98432.31;;;14.26;83.91
10948;BME280;5526;42.070;24.752;2023-04-15T06:02:41;98438.59;;;14.30;81.40
10948;BME280;5526;42.070;24.752;2023-04-15T06:05:08;98444.03;;;14.20;79.87
10948;BME280;5526;42.070;24.752;2023-04-15T06:07:36;98451.88;;;13.93;80.90
10948;BME280;5526;42.070;24.752;2023-04-15T06:10:05;98446.88;;;13.55;82.52
10948;BME280;5526;42.070;24.752;2023-04-15T06:12:32;98445.44;;;13.62;82.35
10948;BME280;5526;42.070;24.752;2023-04-15T06:14:59;98449.31;;;13.70;81.06
10948;BME280;5526;42.070;24.752;2023-04-15T06:17:27;98449.66;;;13.63;82.53
10948;BME280;5526;42.070;24.752;2023-04-15T06:19:55;98455.03;;;13.95;81.00
10948;BME280;5526;42.070;24.752;2023-04-15T06:22:23;98454.34;;;14.22;79.97
10948;BME280;5526;42.070;24.752;2023-04-15T06:24:50;98462.41;;;14.62;77.45
10948;BME280;5526;42.070;24.752;2023-04-15T06:27:17;98463.06;;;14.22;77.87
10948;BME280;5526;42.070;24.752;2023-04-15T06:29:45;98462.16;;;14.45;78.68
10948;BME280;5526;42.070;24.752;2023-04-15T06:32:12;98462.41;;;14.76;77.15
10948;BME280;5526;42.070;24.752;2023-04-15T06:34:39;98469.47;;;14.94;76.92
10948;BME280;5526;42.070;24.752;2023-04-15T06:37:08;98469.06;;;14.73;77.23
10948;BME280;5526;42.070;24.752;2023-04-15T06:39:40;98468.41;;;14.95;76.32
10948;BME280;5526;42.070;24.752;2023-04-15T06:42:07;98474.50;;;15.22;74.75
10948;BME280;5526;42.070;24.752;2023-04-15T06:44:35;98474.69;;;15.26;74.07
10948;BME280;5526;42.070;24.752;2023-04-15T06:47:02;98469.47;;;15.34;73.68
10948;BME280;5526;42.070;24.752;2023-04-15T06:49:30;98480.00;;;15.39;73.07
10948;BME280;5526;42.070;24.752;2023-04-15T06:51:58;98484.94;;;15.81;72.76
10948;BME280;5526;42.070;24.752;2023-04-15T06:54:27;98480.25;;;16.00;71.39
10948;BME280;5526;42.070;24.752;2023-04-15T06:56:54;98478.97;;;16.20;70.04
10948;BME280;5526;42.070;24.752;2023-04-15T06:59:22;98475.91;;;16.70;67.84
10948;BME280;5526;42.070;24.752;2023-04-15T07:01:49;98482.66;;;17.16;66.52
10948;BME280;5526;42.070;24.752;2023-04-15T07:04:16;98475.75;;;17.62;64.96
10948;BME280;5526;42.070;24.752;2023-04-15T07:06:43;98473.44;;;17.95;63.52
10948;BME280;5526;42.070;24.752;2023-04-15T07:09:11;98477.34;;;17.72;63.05
10948;BME280;5526;42.070;24.752;2023-04-15T07:11:40;98477.50;;;17.19;65.08
10948;BME280;5526;42.070;24.752;2023-04-15T07:14:07;98487.03;;;17.59;63.82
10948;BME280;5526;42.070;24.752;2023-04-15T07:16:35;98484.38;;;17.68;62.72
10948;BME280;5526;42.070;24.752;2023-04-15T07:19:02;98492.22;;;17.90;61.95
10948;BME280;5526;42.070;24.752;2023-04-15T07:21:29;98488.16;;;18.18;61.02
10948;BME280;5526;42.070;24.752;2023-04-15T07:23:57;98490.53;;;18.36;60.92
10948;BME280;5526;42.070;24.752;2023-04-15T07:26:24;98499.81;;;18.85;59.36
10948;BME280;5526;42.070;24.752;2023-04-15T07:28:53;98494.56;;;18.34;59.66
10948;BME280;5526;42.070;24.752;2023-04-15T07:31:20;98497.09;;;18.22;60.47
10948;BME280;5526;42.070;24.752;2023-04-15T07:33:48;98499.41;;;18.49;59.53
10948;BME280;5526;42.070;24.752;2023-04-15T07:36:15;98495.59;;;18.75;58.65
10948;BME280;5526;42.070;24.752;2023-04-15T07:38:43;98492.59;;;19.23;57.36
10948;BME280;5526;42.070;24.752;2023-04-15T07:41:11;98494.00;;;19.29;57.94
10948;BME280;5526;42.070;24.752;2023-04-15T07:43:38;98487.22;;;18.94;60.36
10948;BME280;5526;42.070;24.752;2023-04-15T07:46:07;98487.84;;;18.99;60.86
10948;BME280;5526;42.070;24.752;2023-04-15T07:48:35;98483.28;;;19.00;60.33
10948;BME280;5526;42.070;24.752;2023-04-15T07:51:02;98489.00;;;19.27;61.03
10948;BME280;5526;42.070;24.752;2023-04-15T07:53:29;98493.47;;;19.44;60.31
10948;BME280;5526;42.070;24.752;2023-04-15T07:55:57;98488.44;;;19.42;60.64
10948;BME280;5526;42.070;24.752;2023-04-15T07:58:25;98476.13;;;19.29;61.29
10948;BME280;5526;42.070;24.752;2023-04-15T08:00:52;98490.13;;;19.09;59.80
10948;BME280;5526;42.070;24.752;2023-04-15T08:03:23;98482.41;;;19.25;60.67
10948;BME280;5526;42.070;24.752;2023-04-15T08:05:50;98486.06;;;19.12;61.41
10948;BME280;5526;42.070;24.752;2023-04-15T08:08:19;98490.28;;;19.13;60.76
10948;BME280;5526;42.070;24.752;2023-04-15T08:10:47;98481.97;;;19.14;60.46
10948;BME280;5526;42.070;24.752;2023-04-15T08:13:14;98477.72;;;19.51;59.30
10948;BME280;5526;42.070;24.752;2023-04-15T08:15:41;98485.16;;;19.86;57.74
10948;BME280;5526;42.070;24.752;2023-04-15T08:18:09;98483.16;;;20.24;56.74
10948;BME280;5526;42.070;24.752;2023-04-15T08:20:38;98482.94;;;20.09;56.96
10948;BME280;5526;42.070;24.752;2023-04-15T08:23:05;98487.19;;;19.89;57.56
10948;BME280;5526;42.070;24.752;2023-04-15T08:25:33;98489.31;;;19.75;57.63
10948;BME280;5526;42.070;24.752;2023-04-15T08:28:03;98481.19;;;20.13;58.02
10948;BME280;5526;42.070;24.752;2023-04-15T08:30:31;98487.66;;;20.12;58.39
10948;BME280;5526;42.070;24.752;2023-04-15T08:32:59;98484.13;;;20.20;56.89
10948;BME280;5526;42.070;24.752;2023-04-15T08:35:27;98483.47;;;20.23;55.66
10948;BME280;5526;42.070;24.752;2023-04-15T08:37:55;98483.38;;;20.19;55.68
10948;BME280;5526;42.070;24.752;2023-04-15T08:40:27;98476.38;;;20.59;55.53
10948;BME280;5526;42.070;24.752;2023-04-15T08:42:58;98481.66;;;20.80;54.20
10948;BME280;5526;42.070;24.752;2023-04-15T08:45:27;98474.56;;;21.08;53.74
10948;BME280;5526;42.070;24.752;2023-04-15T08:47:55;98485.88;;;20.81;53.59
10948;BME280;5526;42.070;24.752;2023-04-15T08:50:24;98474.50;;;20.72;53.77
10948;BME280;5526;42.070;24.752;2023-04-15T08:52:55;98485.00;;;20.89;52.31
10948;BME280;5526;42.070;24.752;2023-04-15T08:55:25;98480.41;;;20.89;52.34
10948;BME280;5526;42.070;24.752;2023-04-15T08:57:55;98487.00;;;20.80;53.44
10948;BME280;5526;42.070;24.752;2023-04-15T09:00:23;98485.28;;;20.96;52.81
10948;BME280;5526;42.070;24.752;2023-04-15T09:02:53;98480.59;;;21.29;50.96
10948;BME280;5526;42.070;24.752;2023-04-15T09:05:21;98481.56;;;21.61;49.62
10948;BME280;5526;42.070;24.752;2023-04-15T09:07:49;98473.41;;;21.57;49.12
10948;BME280;5526;42.070;24.752;2023-04-15T09:10:18;98482.53;;;21.92;46.28
10948;BME280;5526;42.070;24.752;2023-04-15T09:12:45;98465.50;;;21.61;47.56
10948;BME280;5526;42.070;24.752;2023-04-15T09:15:13;98465.53;;;21.49;48.26
10948;BME280;5526;42.070;24.752;2023-04-15T09:17:42;98474.97;;;21.82;46.25
10948;BME280;5526;42.070;24.752;2023-04-15T09:20:11;98474.06;;;21.90;45.40
10948;BME280;5526;42.070;24.752;2023-04-15T09:22:39;98468.81;;;21.70;45.43
10948;BME280;5526;42.070;24.752;2023-04-15T09:25:26;98454.44;;;21.86;43.10
10948;BME280;5526;42.070;24.752;2023-04-15T09:27:54;98455.69;;;22.32;43.46
10948;BME280;5526;42.070;24.752;2023-04-15T09:30:22;98450.16;;;21.85;46.24
10948;BME280;5526;42.070;24.752;2023-04-15T09:32:50;98446.44;;;22.29;44.91
10948;BME280;5526;42.070;24.752;2023-04-15T09:35:18;98446.06;;;22.58;45.76
10948;BME280;5526;42.070;24.752;2023-04-15T09:37:46;98445.13;;;22.66;46.62
10948;BME280;5526;42.070;24.752;2023-04-15T09:40:13;98441.09;;;22.72;45.66
10948;BME280;5526;42.070;24.752;2023-04-15T09:43:00;98449.81;;;22.42;45.46
10948;BME280;5526;42.070;24.752;2023-04-15T09:45:28;98448.56;;;22.51;46.75
10948;BME280;5526;42.070;24.752;2023-04-15T09:47:56;98448.16;;;22.65;45.93
10948;BME280;5526;42.070;24.752;2023-04-15T09:50:27;98439.91;;;22.58;45.38
10948;BME280;5526;42.070;24.752;2023-04-15T09:52:55;98447.84;;;22.82;44.35
10948;BME280;5526;42.070;24.752;2023-04-15T09:55:22;98447.19;;;23.04;43.76
10948;BME280;5526;42.070;24.752;2023-04-15T09:57:50;98443.16;;;23.10;43.60
10948;BME280;5526;42.070;24.752;2023-04-15T10:00:18;98451.88;;;23.22;43.36
10948;BME280;5526;42.070;24.752;2023-04-15T10:02:46;98445.13;;;23.28;44.02
10948;BME280;5526;42.070;24.752;2023-04-15T10:05:14;98434.63;;;23.73;42.78
10948;BME280;5526;42.070;24.752;2023-04-15T10:07:43;98436.09;;;23.52;42.09
10948;BME280;5526;42.070;24.752;2023-04-15T10:10:10;98429.97;;;23.55;41.98
10948;BME280;5526;42.070;24.752;2023-04-15T10:12:40;98422.50;;;23.29;42.83
10948;BME280;5526;42.070;24.752;2023-04-15T10:15:13;98436.31;;;22.81;42.64
10948;BME280;5526;42.070;24.752;2023-04-15T10:17:43;98425.31;;;23.02;42.46
10948;BME280;5526;42.070;24.752;2023-04-15T10:20:11;98422.50;;;23.45;41.21
10948;BME280;5526;42.070;24.752;2023-04-15T10:22:39;98425.28;;;23.33;40.99
10948;BME280;5526;42.070;24.752;2023-04-15T10:25:08;98412.44;;;22.76;40.92
10948;BME280;5526;42.070;24.752;2023-04-15T10:27:38;98408.78;;;22.84;40.25
10948;BME280;5526;42.070;24.752;2023-04-15T10:30:07;98411.28;;;22.93;39.69
10948;BME280;5526;42.070;24.752;2023-04-15T10:32:36;98410.50;;;23.23;39.39
10948;BME280;5526;42.070;24.752;2023-04-15T10:35:07;98400.25;;;23.63;38.28
10948;BME280;5526;42.070;24.752;2023-04-15T10:37:36;98401.44;;;23.85;37.67
10948;BME280;5526;42.070;24.752;2023-04-15T10:40:26;98400.38;;;24.08;35.86
10948;BME280;5526;42.070;24.752;2023-04-15T10:42:54;98392.22;;;24.01;35.99
10948;BME280;5526;42.070;24.752;2023-04-15T10:45:25;98384.34;;;24.12;37.12
10948;BME280;5526;42.070;24.752;2023-04-15T10:47:55;98383.66;;;24.37;37.17
10948;BME280;5526;42.070;24.752;2023-04-15T10:50:26;98384.44;;;24.38;37.79
10948;BME280;5526;42.070;24.752;2023-04-15T10:52:55;98395.59;;;24.17;38.40
10948;BME280;5526;42.070;24.752;2023-04-15T10:55:24;98389.50;;;24.20;38.58
10948;BME280;5526;42.070;24.752;2023-04-15T10:57:53;98377.50;;;24.60;37.59
10948;BME280;5526;42.070;24.752;2023-04-15T11:00:25;98382.31;;;24.05;38.36
10948;BME280;5526;42.070;24.752;2023-04-15T11:02:54;98387.97;;;23.12;41.53
10948;BME280;5526;42.070;24.752;2023-04-15T11:05:22;98383.38;;;22.35;43.42
10948;BME280;5526;42.070;24.752;2023-04-15T11:08:11;98378.88;;;22.39;43.58
10948;BME280;5526;42.070;24.752;2023-04-15T11:10:54;98377.19;;;22.62;44.49
10948;BME280;5526;42.070;24.752;2023-04-15T11:13:26;98384.25;;;23.17;44.01
10948;BME280;5526;42.070;24.752;2023-04-15T11:15:58;98363.19;;;23.34;42.19
10948;BME280;5526;42.070;24.752;2023-04-15T11:18:28;98362.56;;;22.91;43.17
10948;BME280;5526;42.070;24.752;2023-04-15T11:20:58;98365.47;;;23.01;43.25
10948;BME280;5526;42.070;24.752;2023-04-15T11:23:32;98366.25;;;23.02;43.71
10948;BME280;5526;42.070;24.752;2023-04-15T11:26:01;98362.25;;;23.27;43.83
10948;BME280;5526;42.070;24.752;2023-04-15T11:28:31;98368.56;;;23.34;43.11
10948;BME280;5526;42.070;24.752;2023-04-15T11:31:05;98359.91;;;23.25;44.16
10948;BME280;5526;42.070;24.752;2023-04-15T11:33:33;98361.44;;;23.26;42.93
10948;BME280;5526;42.070;24.752;2023-04-15T11:36:01;98348.47;;;23.28;42.40
10948;BME280;5526;42.070;24.752;2023-04-15T11:38:30;98351.09;;;23.09;43.04
10948;BME280;5526;42.070;24.752;2023-04-15T11:40:57;98345.94;;;22.85;43.96
10948;BME280;5526;42.070;24.752;2023-04-15T11:43:25;98344.41;;;22.69;44.84
10948;BME280;5526;42.070;24.752;2023-04-15T11:45:53;98342.66;;;22.61;46.54
10948;BME280;5526;42.070;24.752;2023-04-15T11:48:23;98342.66;;;22.45;47.11
10948;BME280;5526;42.070;24.752;2023-04-15T11:50:54;98341.38;;;22.86;47.42
10948;BME280;5526;42.070;24.752;2023-04-15T11:53:23;98344.28;;;22.81;47.07
10948;BME280;5526;42.070;24.752;2023-04-15T11:55:53;98333.72;;;23.03;47.10
10948;BME280;5526;42.070;24.752;2023-04-15T11:58:21;98328.06;;;23.08;45.84
10948;BME280;5526;42.070;24.752;2023-04-15T12:00:51;98333.69;;;22.53;46.34
10948;BME280;5526;42.070;24.752;2023-04-15T12:03:23;98322.09;;;22.49;46.34
10948;BME280;5526;42.070;24.752;2023-04-15T12:06:10;98319.34;;;22.03;46.71
10948;BME280;5526;42.070;24.752;2023-04-15T12:08:57;98316.53;;;22.42;46.99
10948;BME280;5526;42.070;24.752;2023-04-15T12:11:32;98320.56;;;22.48;47.45
10948;BME280;5526;42.070;24.752;2023-04-15T12:14:04;98314.97;;;22.41;48.29
10948;BME280;5526;42.070;24.752;2023-04-15T12:16:33;98313.84;;;21.96;49.02
10948;BME280;5526;42.070;24.752;2023-04-15T12:19:05;98319.91;;;21.53;49.96
10948;BME280;5526;42.070;24.752;2023-04-15T12:21:35;98321.69;;;21.49;50.79
10948;BME280;5526;42.070;24.752;2023-04-15T12:24:05;98320.19;;;21.64;50.86
10948;BME280;5526;42.070;24.752;2023-04-15T12:26:36;98324.09;;;21.78;50.59
10948;BME280;5526;42.070;24.752;2023-04-15T12:29:05;98322.41;;;22.01;49.28
10948;BME280;5526;42.070;24.752;2023-04-15T12:31:33;98309.94;;;22.24;49.07
10948;BME280;5526;42.070;24.752;2023-04-15T12:34:02;98316.47;;;22.39;49.58
10948;BME280;5526;42.070;24.752;2023-04-15T12:36:30;98311.97;;;22.58;49.21
10948;BME280;5526;42.070;24.752;2023-04-15T12:39:01;98309.03;;;22.48;49.58
10948;BME280;5526;42.070;24.752;2023-04-15T12:41:30;98313.06;;;22.42;49.07
10948;BME280;5526;42.070;24.752;2023-04-15T12:43:58;98308.50;;;22.42;49.21
10948;BME280;5526;42.070;24.752;2023-04-15T12:46:26;98318.00;;;22.40;49.86
10948;BME280;5526;42.070;24.752;2023-04-15T12:48:54;98315.91;;;22.18;49.84
10948;BME280;5526;42.070;24.752;2023-04-15T12:51:21;98306.44;;;21.77;51.14
10948;BME280;5526;42.070;24.752;2023-04-15T12:53:48;98315.13;;;22.02;50.50
10948;BME280;5526;42.070;24.752;2023-04-15T12:56:16;98315.59;;;21.76;51.04
10948;BME280;5526;42.070;24.752;2023-04-15T12:58:43;98315.72;;;21.80;51.31
10948;BME280;5526;42.070;24.752;2023-04-15T13:01:12;98321.44;;;21.54;52.56